Time;durP1;ratioP1;P1;durP2;ratioP2;P2;SDS_P1;SDS_P2;PMS_P1;PMS_P2;Temp;Humidity;BMP_temperature;BMP_pressure;BME280_temperature;BME280_humidity;BME280_pressure;Samples;Min_cycle;Max_cycle;Signal;HPM_P1;HPM_P2
2022/04/16 00:01:33;;;;;;;5.22;3.83;;;;;;;12.56;59.40;99202.75;1726441;81;21734;-54
2022/04/16 00:04:00;;;;;;;4.37;2.80;;;;;;;12.52;59.72;99202.06;1726293;81;21206;-53
2022/04/16 00:06:27;;;;;;;6.65;4.03;;;;;;;12.50;59.92;99206.72;1728668;80;22024;-54
2022/04/16 00:08:54;;;;;;;3.87;3.40;;;;;;;12.46;60.16;99206.04;1728691;81;21926;-53
2022/04/16 00:11:20;;;;;;;7.75;3.95;;;;;;;12.41;60.36;99205.48;1732782;81;21069;-53
2022/04/16 00:13:50;;;;;;;6.75;3.75;;;;;;;12.37;60.49;99208.45;1728245;81;21014;-53
2022/04/16 00:16:17;;;;;;;7.85;3.47;;;;;;;12.33;60.62;99219.95;1731051;81;21111;-54
2022/04/16 00:18:44;;;;;;;6.70;3.72;;;;;;;12.30;60.72;99220.62;1729003;81;20955;-54
2022/04/16 00:21:12;;;;;;;5.08;3.62;;;;;;;12.27;60.80;99209.52;1729656;81;21414;-54
2022/04/16 00:23:43;;;;;;;4.53;3.67;;;;;;;12.24;60.92;99216.97;1732627;80;21028;-54
2022/04/16 00:26:14;;;;;;;6.35;3.58;;;;;;;12.20;60.94;99208.19;1694850;83;20978;-53
2022/04/16 00:28:40;;;;;;;4.65;4.10;;;;;;;12.16;61.12;99213.89;1731247;81;20907;-54
2022/04/16 00:31:06;;;;;;;3.58;2.98;;;;;;;12.12;61.23;99218.59;1730272;81;20915;-54
2022/04/16 00:33:33;;;;;;;5.53;3.70;;;;;;;12.07;61.32;99216.69;1733585;81;21046;-53
2022/04/16 00:36:01;;;;;;;5.42;4.17;;;;;;;12.05;61.43;99223.52;1732239;81;21354;-54
2022/04/16 00:38:27;;;;;;;5.78;4.00;;;;;;;12.02;61.54;99226.39;1699372;82;20979;-54
2022/04/16 00:40:53;;;;;;;4.65;3.65;;;;;;;12.01;61.68;99231.40;1734429;80;20915;-54
2022/04/16 00:43:24;;;;;;;4.28;3.37;;;;;;;11.99;61.81;99223.87;1732143;80;21635;-54
2022/04/16 00:45:52;;;;;;;6.85;3.67;;;;;;;11.99;61.95;99218.99;1731158;81;21088;-54
2022/04/16 00:48:22;;;;;;;4.28;3.75;;;;;;;11.99;62.19;99217.64;1733104;80;21004;-54
2022/04/16 00:50:53;;;;;;;5.35;3.00;;;;;;;11.98;62.37;99219.95;1732719;81;20993;-54
2022/04/16 00:53:20;;;;;;;6.12;3.10;;;;;;;11.98;62.61;99218.13;1735498;81;21418;-54
2022/04/16 00:55:47;;;;;;;5.17;3.90;;;;;;;11.99;62.74;99218.48;1726098;81;20967;-54
2022/04/16 00:58:13;;;;;;;7.92;3.12;;;;;;;12.01;62.72;99221.95;1731138;81;21981;-53
2022/04/16 01:00:41;;;;;;;6.12;4.15;;;;;;;12.04;62.71;99226.30;1730687;81;21097;-53
2022/04/16 01:03:08;;;;;;;5.97;4.40;;;;;;;12.05;62.67;99208.68;1731986;81;21077;-53
2022/04/16 01:05:37;;;;;;;3.95;3.42;;;;;;;12.06;62.64;99215.81;1729634;81;21029;-53
2022/04/16 01:08:05;;;;;;;5.78;4.40;;;;;;;12.06;62.62;99213.59;1730620;81;20974;-53
2022/04/16 01:10:33;;;;;;;7.12;3.92;;;;;;;12.05;62.78;99197.89;1729774;81;21030;-53
2022/04/16 01:13:04;;;;;;;3.98;3.40;;;;;;;12.02;62.75;99175.63;1729321;81;21565;-52
2022/04/16 01:15:31;;;;;;;6.10;4.08;;;;;;;11.99;62.84;99170.45;1731362;80;21022;-53
2022/04/16 01:18:03;;;;;;;9.08;3.92;;;;;;;11.95;62.87;99167.54;1731253;81;21115;-52
2022/04/16 01:20:33;;;;;;;6.03;4.55;;;;;;;11.92;62.99;99171.28;1733093;80;21402;-52
2022/04/16 01:22:59;;;;;;;5.28;3.42;;;;;;;11.88;63.10;99208.86;1678279;83;21818;-52
2022/04/16 01:25:27;;;;;;;5.60;3.15;;;;;;;11.86;63.28;99211.26;1736424;80;21014;-53
2022/04/16 01:27:55;;;;;;;10.30;4.37;;;;;;;11.81;63.50;99221.00;1735121;81;20962;-53
2022/04/16 01:30:23;;;;;;;4.97;3.33;;;;;;;11.77;63.87;99222.61;1729789;81;21026;-53
2022/04/16 01:32:50;;;;;;;6.85;3.52;;;;;;;11.72;64.08;99222.39;1729315;81;21062;-52
2022/04/16 01:35:17;;;;;;;4.87;3.27;;;;;;;11.71;64.46;99226.05;1689766;83;21866;-53
2022/04/16 01:37:44;;;;;;;4.67;3.05;;;;;;;11.70;64.59;99226.14;1733637;80;21984;-53
2022/04/16 01:40:12;;;;;;;5.30;3.87;;;;;;;11.70;64.78;99218.05;1730756;81;21081;-53
2022/04/16 01:42:41;;;;;;;5.22;3.65;;;;;;;11.70;64.92;99206.78;1733359;81;20994;-53
2022/04/16 01:45:09;;;;;;;4.25;3.47;;;;;;;11.70;64.96;99201.39;1732782;81;20986;-53
2022/04/16 01:47:38;;;;;;;7.87;3.72;;;;;;;11.69;65.07;99202.83;1727030;80;21657;-53
2022/04/16 01:50:09;;;;;;;4.85;3.10;;;;;;;11.67;65.22;99208.79;1734369;81;21494;-53
2022/04/16 01:52:37;;;;;;;7.78;4.33;;;;;;;11.65;65.36;99222.87;1729935;81;21030;-53
2022/04/16 01:55:07;;;;;;;6.15;3.15;;;;;;;11.59;65.51;99225.44;1730122;81;21038;-54
2022/04/16 01:57:33;;;;;;;8.48;4.17;;;;;;;11.55;65.70;99228.42;1729481;81;20967;-54
2022/04/16 02:00:00;;;;;;;7.10;3.65;;;;;;;11.53;65.88;99239.77;1731893;81;21157;-54
2022/04/16 02:02:28;;;;;;;5.20;4.53;;;;;;;11.51;66.17;99241.20;1731125;81;21488;-52
2022/04/16 02:04:54;;;;;;;7.40;4.03;;;;;;;11.49;66.35;99236.38;1729119;80;21038;-54
2022/04/16 02:07:21;;;;;;;8.88;4.30;;;;;;;11.50;66.56;99240.81;1730022;81;21048;-53
2022/04/16 02:09:47;;;;;;;6.33;3.92;;;;;;;11.49;66.77;99231.47;1731669;81;21029;-53
2022/04/16 02:12:13;;;;;;;7.33;4.45;;;;;;;11.48;66.84;99233.33;1733273;81;21446;-53
2022/04/16 02:14:41;;;;;;;6.78;5.62;;;;;;;11.49;66.93;99238.20;1731400;81;21042;-53
2022/04/16 02:17:08;;;;;;;7.55;5.75;;;;;;;11.47;67.06;99228.89;1728240;81;21034;-53
2022/04/16 02:19:38;;;;;;;7.05;4.28;;;;;;;11.44;67.25;99229.54;1730531;81;21038;-53
2022/04/16 02:22:06;;;;;;;6.67;4.70;;;;;;;11.41;67.41;99238.67;1726940;80;21026;-53
2022/04/16 02:24:32;;;;;;;11.43;4.58;;;;;;;11.39;67.57;99225.79;1724856;80;21139;-52
2022/04/16 02:26:59;;;;;;;6.55;4.17;;;;;;;11.37;67.74;99225.88;1731905;81;21029;-52
2022/04/16 02:29:27;;;;;;;8.70;4.33;;;;;;;11.37;67.93;99224.53;1713606;81;21078;-52
2022/04/16 02:31:54;;;;;;;7.97;4.75;;;;;;;11.38;68.03;99215.48;1703056;82;21078;-52
2022/04/16 02:34:20;;;;;;;5.60;4.53;;;;;;;11.41;68.03;99207.67;1707255;82;21583;-52
2022/04/16 02:36:47;;;;;;;7.45;5.05;;;;;;;11.44;68.12;99214.72;1705365;82;21504;-52
2022/04/16 02:39:15;;;;;;;7.90;4.92;;;;;;;11.47;68.13;99214.06;1701297;82;21070;-52
2022/04/16 02:41:42;;;;;;;8.10;4.62;;;;;;;11.50;68.11;99242.64;1708515;82;20981;-53
2022/04/16 02:47:05;;;;;;;7.17;4.75;;;;;;;11.49;68.11;99248.98;1711712;82;20958;-52
2022/04/16 02:49:22;;;;;;;7.45;5.08;;;;;;;11.42;68.27;99246.27;1708839;82;21093;-53
2022/04/16 02:51:50;;;;;;;7.37;4.80;;;;;;;11.35;68.43;99241.73;1703882;82;21112;-52
2022/04/16 02:54:18;;;;;;;7.60;4.62;;;;;;;11.30;68.56;99244.72;1702262;82;21030;-52
2022/04/16 02:56:45;;;;;;;6.20;4.83;;;;;;;11.27;68.75;99248.05;1699782;82;21026;-52
2022/04/16 02:59:11;;;;;;;5.28;4.22;;;;;;;11.25;68.89;99245.92;1705238;82;21070;-52
2022/04/16 03:01:39;;;;;;;4.87;4.40;;;;;;;11.25;69.07;99237.84;1707457;82;21277;-52
2022/04/16 03:04:06;;;;;;;5.80;4.67;;;;;;;11.27;69.17;99232.77;1707795;82;21090;-52
2022/04/16 03:06:33;;;;;;;5.90;5.08;;;;;;;11.29;69.22;99234.89;1710611;82;21058;-53
2022/04/16 03:08:59;;;;;;;4.95;4.53;;;;;;;11.30;69.22;99243.38;1705373;82;21519;-52
2022/04/16 03:11:28;;;;;;;8.40;5.35;;;;;;;11.29;69.23;99244.33;1706667;82;21602;-52
2022/04/16 03:13:56;;;;;;;9.98;5.47;;;;;;;11.30;69.29;99250.58;1710530;82;21093;-52
2022/04/16 03:19:07;;;;;;;12.47;6.08;;;;;;;11.25;69.32;99261.61;1707947;82;21479;-51
2022/04/16 03:21:33;;;;;;;5.42;4.75;;;;;;;11.21;69.43;99267.28;1706129;82;21475;-53
2022/04/16 03:23:59;;;;;;;5.55;4.95;;;;;;;11.14;69.57;99266.78;1708589;82;21058;-53
2022/04/16 03:26:26;;;;;;;12.85;5.47;;;;;;;11.12;69.71;99263.78;1705282;82;21054;-52
2022/04/16 03:28:53;;;;;;;7.10;5.15;;;;;;;11.09;69.87;99266.64;1709332;82;21520;-53
2022/04/16 03:31:19;;;;;;;5.95;5.35;;;;;;;11.08;70.02;99267.59;1706645;82;21073;-53
2022/04/16 03:33:47;;;;;;;6.03;5.40;;;;;;;11.10;70.07;99264.34;1705328;82;21512;-52
2022/04/16 03:36:13;;;;;;;7.85;5.92;;;;;;;11.10;70.20;99266.55;1669387;83;21501;-53
2022/04/16 03:38:40;;;;;;;7.00;6.17;;;;;;;11.09;70.29;99258.56;1652489;86;21361;-53
2022/04/16 03:41:06;;;;;;;9.83;6.05;;;;;;;11.05;70.33;99259.71;1649052;86;20980;-52
2022/04/16 03:43:34;;;;;;;7.60;6.75;;;;;;;11.02;70.39;99259.40;1660797;84;21343;-53
2022/04/16 03:46:02;;;;;;;9.70;5.90;;;;;;;10.99;70.46;99259.09;1662499;85;21105;-53
2022/04/16 03:48:28;;;;;;;11.28;5.78;;;;;;;10.98;70.56;99252.44;1658654;85;21122;-52
2022/04/16 03:50:55;;;;;;;7.00;6.10;;;;;;;10.95;70.75;99265.62;1647801;85;22197;-51
2022/04/16 03:53:22;;;;;;;11.90;5.47;;;;;;;10.94;70.82;99263.02;1639791;85;21498;-53
2022/04/16 04:01:21;;;;;;;;;;;;;;;11.03;71.04;99262.96;1666960;84;21101;-53
2022/04/16 04:03:48;;;;;;;7.37;6.42;;;;;;;11.04;70.99;99266.05;1662953;84;21891;-54
2022/04/16 04:06:14;;;;;;;9.20;6.85;;;;;;;11.01;71.03;99267.09;1665310;84;21062;-53
2022/04/16 04:08:42;;;;;;;10.93;8.10;;;;;;;10.99;71.05;99267.16;1671890;83;21044;-53
2022/04/16 04:11:09;;;;;;;8.80;7.17;;;;;;;10.96;71.15;99263.33;1671482;83;21038;-53
2022/04/16 04:13:35;;;;;;;9.55;6.70;;;;;;;10.94;71.34;99265.70;1666631;84;21505;-53
2022/04/16 04:16:02;;;;;;;9.75;6.35;;;;;;;10.92;71.39;99265.78;1666046;84;21606;-53
2022/04/16 04:18:30;;;;;;;7.05;5.78;;;;;;;10.91;71.56;99268.56;1644550;85;21053;-53
2022/04/16 04:20:57;;;;;;;6.72;6.05;;;;;;;10.93;71.56;99275.61;1648941;86;21023;-54
2022/04/16 04:23:24;;;;;;;6.45;5.85;;;;;;;10.97;71.57;99272.27;1641131;85;21069;-53
2022/04/16 04:25:51;;;;;;;8.38;6.65;;;;;;;11.01;71.57;99275.16;1645221;85;21131;-52
2022/04/16 04:28:18;;;;;;;7.17;6.47;;;;;;;11.02;71.53;99275.55;1648200;84;22453;-54
2022/04/16 04:30:45;;;;;;;9.58;8.10;;;;;;;11.00;71.52;99273.42;1676970;83;21402;-53
2022/04/16 04:33:11;;;;;;;9.25;7.87;;;;;;;11.00;71.60;99274.30;1646891;85;21408;-54
2022/04/16 04:35:38;;;;;;;8.58;7.00;;;;;;;10.97;71.58;99275.80;1648985;86;21067;-53
2022/04/16 04:38:05;;;;;;;12.07;7.90;;;;;;;10.94;71.64;99274.66;1649254;86;21074;-54
2022/04/16 04:43:30;;;;;;;7.53;6.77;;;;;;;11.00;71.85;99270.73;1793666;78;22636;-52
2022/04/16 04:45:57;;;;;;;9.55;6.35;;;;;;;10.94;71.88;99272.44;1775384;79;20935;-52
2022/04/16 04:48:24;;;;;;;8.70;7.78;;;;;;;10.93;71.98;99267.53;1774293;79;21151;-53
2022/04/16 04:50:50;;;;;;;19.45;9.33;;;;;;;10.93;72.13;99272.05;1774429;79;20930;-52
2022/04/16 04:53:17;;;;;;;11.30;9.13;;;;;;;10.90;72.11;99270.86;1773034;79;20874;-52
2022/04/16 04:55:43;;;;;;;12.70;8.23;;;;;;;10.87;72.30;99266.54;1773592;79;20906;-53
2022/04/16 04:58:09;;;;;;;13.78;7.92;;;;;;;10.86;72.28;99269.31;1757304;79;21432;-52
2022/04/16 05:00:37;;;;;;;10.13;7.50;;;;;;;10.87;72.38;99267.02;1752044;80;21506;-53
2022/04/16 05:03:04;;;;;;;10.32;7.00;;;;;;;10.88;72.47;99262.02;1750766;80;20981;-53
2022/04/16 05:05:31;;;;;;;7.50;6.80;;;;;;;10.91;72.42;99264.05;1750000;80;22017;-52
2022/04/16 05:07:57;;;;;;;13.85;9.15;;;;;;;10.97;72.39;99261.50;1749924;81;21041;-52
2022/04/16 05:10:24;;;;;;;9.88;8.83;;;;;;;11.06;72.27;99265.48;1750479;81;21076;-53
2022/04/16 05:12:53;;;;;;;10.48;9.43;;;;;;;11.11;72.05;99261.56;1751280;80;21253;-53
2022/04/16 05:15:19;;;;;;;9.45;8.53;;;;;;;11.09;71.92;99266.16;1696568;81;21472;-53
2022/04/16 05:17:47;;;;;;;8.20;7.40;;;;;;;11.05;71.99;99271.83;1750705;80;21084;-52
2022/04/16 05:20:15;;;;;;;10.03;7.30;;;;;;;11.03;71.95;99279.98;1749947;80;21101;-53
2022/04/16 05:22:41;;;;;;;10.78;8.15;;;;;;;11.03;72.00;99269.69;1748641;80;21692;-52
2022/04/16 05:25:09;;;;;;;8.63;7.67;;;;;;;11.05;71.95;99277.22;1748977;80;20934;-53
2022/04/16 05:27:37;;;;;;;10.40;8.03;;;;;;;11.07;71.80;99267.20;1748165;81;21041;-53
2022/04/16 05:30:12;;;;;;;9.85;8.38;;;;;;;11.07;71.78;99273.45;1749651;81;21589;-53
2022/04/16 05:32:39;;;;;;;10.23;9.20;;;;;;;11.11;71.74;99266.08;1748803;80;21093;-53
2022/04/16 05:35:08;;;;;;;10.00;9.10;;;;;;;11.12;71.64;99267.34;1750798;80;20984;-53
2022/04/16 05:37:36;;;;;;;9.53;8.73;;;;;;;11.10;71.72;99269.25;1747918;81;21555;-53
2022/04/16 05:40:07;;;;;;;12.68;8.20;;;;;;;11.13;71.80;99265.04;1750365;81;21033;-53
2022/04/16 05:42:39;;;;;;;9.18;8.30;;;;;;;11.22;71.73;99270.37;1745512;80;20927;-52
2022/04/16 05:45:07;;;;;;;11.28;8.00;;;;;;;11.35;71.51;99262.81;1738983;80;20907;-53
2022/04/16 05:47:34;;;;;;;9.75;8.40;;;;;;;11.50;71.30;99261.02;1737129;81;21053;-53
2022/04/16 05:50:00;;;;;;;8.15;7.15;;;;;;;11.67;71.09;99256.84;1735373;80;22865;-53
2022/04/16 05:52:27;;;;;;;11.10;9.28;;;;;;;11.84;70.66;99259.02;1736463;80;21538;-52
2022/04/16 05:54:53;;;;;;;10.05;9.08;;;;;;;11.95;69.79;99257.89;1738081;80;21559;-53
2022/04/16 05:57:21;;;;;;;11.38;9.50;;;;;;;12.00;69.64;99256.63;1737226;80;21057;-52
2022/04/16 05:59:49;;;;;;;10.93;9.93;;;;;;;12.05;69.30;99261.28;1735847;80;21037;-52
2022/04/16 06:02:15;;;;;;;14.83;10.53;;;;;;;12.09;69.25;99257.41;1736662;80;21230;-54
2022/04/16 06:04:42;;;;;;;11.73;10.15;;;;;;;12.18;68.94;99264.07;1738458;80;21058;-52
2022/04/16 06:07:08;;;;;;;12.68;11.33;;;;;;;12.24;68.59;99271.80;1701258;82;21035;-53
2022/04/16 06:09:35;;;;;;;13.62;9.08;;;;;;;12.25;68.26;99268.63;1734245;80;21042;-53
2022/04/16 06:12:05;;;;;;;10.55;9.45;;;;;;;12.24;68.14;99266.41;1736757;80;21105;-53
2022/04/16 06:14:31;;;;;;;8.85;8.15;;;;;;;12.26;68.12;99267.63;1736593;80;21607;-53
2022/04/16 06:16:58;;;;;;;8.45;7.50;;;;;;;12.29;68.09;99262.92;1737431;80;21038;-53
2022/04/16 06:19:24;;;;;;;9.28;8.35;;;;;;;12.38;68.07;99263.70;1737186;80;21546;-53
2022/04/16 06:21:52;;;;;;;13.30;8.73;;;;;;;12.46;67.86;99265.42;1736729;80;21463;-53
2022/04/16 06:24:18;;;;;;;13.50;9.15;;;;;;;12.56;67.61;99268.89;1736501;81;21092;-53
2022/04/16 06:26:47;;;;;;;13.25;10.50;;;;;;;12.61;67.09;99270.31;1734518;80;21374;-53
2022/04/16 06:29:14;;;;;;;11.35;10.20;;;;;;;12.63;67.10;99267.05;1699753;83;21047;-53
2022/04/16 06:31:43;;;;;;;10.53;8.88;;;;;;;12.66;66.91;99265.51;1736867;81;21276;-53
2022/04/16 06:34:09;;;;;;;9.65;8.78;;;;;;;12.69;66.77;99271.17;1738844;80;20919;-54
2022/04/16 06:36:38;;;;;;;10.48;9.38;;;;;;;12.69;66.74;99273.39;1737672;81;20922;-53
2022/04/16 06:39:04;;;;;;;12.45;9.80;;;;;;;12.68;66.63;99264.91;1737829;80;21527;-53
2022/04/16 06:41:31;;;;;;;11.15;9.38;;;;;;;12.68;66.66;99266.25;1738208;80;21372;-53
2022/04/16 06:43:57;;;;;;;10.05;9.05;;;;;;;12.68;66.42;99266.25;1730003;81;20911;-53
2022/04/16 06:46:24;;;;;;;10.28;8.15;;;;;;;12.65;66.48;99273.22;1729249;81;21365;-53
2022/04/16 06:48:51;;;;;;;11.40;8.80;;;;;;;12.65;66.49;99271.88;1730443;81;20971;-53
2022/04/16 06:51:17;;;;;;;8.85;8.15;;;;;;;12.68;66.57;99275.70;1729180;81;21592;-53
2022/04/16 06:53:43;;;;;;;9.68;8.70;;;;;;;12.71;66.38;99276.87;1731729;81;21717;-53
2022/04/16 06:56:10;;;;;;;8.70;7.80;;;;;;;12.72;66.18;99277.73;1730985;81;20969;-53
2022/04/16 06:58:37;;;;;;;11.65;9.13;;;;;;;12.69;66.12;99273.88;1730588;81;20872;-53
2022/04/16 07:01:04;;;;;;;10.35;9.05;;;;;;;12.66;66.14;99272.27;1728533;81;21507;-53
2022/04/16 07:03:31;;;;;;;10.65;9.03;;;;;;;12.66;66.26;99277.66;1730069;81;21341;-53
2022/04/16 07:05:57;;;;;;;12.50;9.50;;;;;;;12.65;66.16;99281.80;1726980;81;20915;-53
2022/04/16 07:08:26;;;;;;;12.23;8.90;;;;;;;12.59;66.16;99278.98;1730101;81;20950;-53
2022/04/16 07:10:53;;;;;;;10.23;8.65;;;;;;;12.54;66.28;99285.18;1726211;81;21666;-53
2022/04/16 07:13:21;;;;;;;9.18;7.75;;;;;;;12.49;66.44;99296.28;1726269;81;21578;-53
2022/04/16 07:15:48;;;;;;;10.72;8.48;;;;;;;12.49;66.36;99292.23;1727413;81;22364;-53
2022/04/16 07:18:15;;;;;;;9.15;8.28;;;;;;;12.49;66.43;99283.27;1727386;81;21374;-52
2022/04/16 07:20:42;;;;;;;11.15;7.62;;;;;;;12.53;66.40;99286.14;1729309;81;21367;-53
2022/04/16 07:23:09;;;;;;;8.78;7.87;;;;;;;12.57;66.19;99287.70;1730099;81;21297;-53
2022/04/16 07:25:35;;;;;;;9.50;8.70;;;;;;;12.59;66.23;99295.19;1731689;81;20926;-52
2022/04/16 07:28:02;;;;;;;9.93;8.98;;;;;;;12.63;66.14;99286.42;1728146;81;21821;-53
2022/04/16 07:30:29;;;;;;;14.25;9.85;;;;;;;12.64;65.93;99291.73;1729784;81;21276;-54
2022/04/16 07:32:55;;;;;;;10.13;9.15;;;;;;;12.63;66.04;99291.34;1729740;81;21074;-53
2022/04/16 07:35:23;;;;;;;9.23;8.25;;;;;;;12.64;65.98;99290.38;1725637;81;21046;-53
2022/04/16 07:37:51;;;;;;;8.28;7.58;;;;;;;12.63;65.76;99287.30;1726649;81;21050;-53
2022/04/16 07:40:17;;;;;;;8.13;6.65;;;;;;;12.66;65.65;99293.86;1728431;81;21103;-53
2022/04/16 07:42:44;;;;;;;9.70;7.50;;;;;;;12.72;65.68;99293.46;1729860;80;21085;-53
2022/04/16 07:45:10;;;;;;;8.78;8.05;;;;;;;12.81;65.12;99294.70;1735304;80;21108;-53
2022/04/16 07:47:36;;;;;;;9.65;8.03;;;;;;;12.83;65.06;99293.64;1736431;80;21031;-53
2022/04/16 07:50:05;;;;;;;10.28;8.28;;;;;;;12.85;64.74;99298.44;1734029;80;21053;-53
2022/04/16 07:52:31;;;;;;;8.30;7.47;;;;;;;12.82;64.73;99297.79;1736381;81;21078;-53
2022/04/16 07:54:57;;;;;;;9.08;8.13;;;;;;;12.78;64.75;99303.86;1737128;80;21238;-53
2022/04/16 07:57:25;;;;;;;8.40;7.53;;;;;;;12.79;64.53;99299.33;1736920;81;20950;-54
2022/04/16 07:59:54;;;;;;;11.73;8.78;;;;;;;12.82;64.74;99301.84;1736255;80;20947;-53
2022/04/16 08:02:20;;;;;;;9.40;8.60;;;;;;;12.88;64.52;99305.48;1737444;80;20930;-55
2022/04/16 08:04:47;;;;;;;10.28;8.80;;;;;;;12.93;64.37;99304.70;1737640;80;20942;-54
2022/04/16 08:07:13;;;;;;;12.13;8.38;;;;;;;12.98;64.12;99298.53;1736113;81;21505;-53
2022/04/16 08:09:39;;;;;;;8.50;7.70;;;;;;;13.05;64.09;99295.80;1736050;80;21090;-53
2022/04/16 08:12:07;;;;;;;6.53;5.97;;;;;;;13.11;63.87;99296.74;1733841;81;21669;-53
2022/04/16 08:14:33;;;;;;;6.70;6.10;;;;;;;13.22;63.60;99300.13;1716416;82;20985;-54
2022/04/16 08:17:00;;;;;;;7.75;6.03;;;;;;;13.37;62.98;99296.41;1736128;80;21545;-54
2022/04/16 08:19:28;;;;;;;8.83;7.97;;;;;;;13.51;62.17;99295.02;1736545;81;21290;-53
2022/04/16 08:21:55;;;;;;;7.50;6.75;;;;;;;13.57;61.16;99300.48;1737872;80;21034;-54
2022/04/16 08:26:58;;;;;;;9.68;6.83;;;;;;;13.48;60.98;99294.34;1735987;81;21043;-56
2022/04/16 08:29:24;;;;;;;6.95;6.33;;;;;;;13.46;61.41;99289.03;1736581;81;22506;-55
2022/04/16 08:31:50;;;;;;;7.58;6.90;;;;;;;13.54;61.70;99290.73;1737312;81;21090;-56
2022/04/16 08:34:17;;;;;;;10.25;6.95;;;;;;;13.66;61.24;99286.83;1735824;81;21128;-56
2022/04/16 08:36:44;;;;;;;8.20;6.33;;;;;;;13.76;60.85;99287.45;1735509;81;21053;-56
2022/04/16 08:39:11;;;;;;;6.08;5.50;;;;;;;13.87;60.57;99286.69;1736559;80;21368;-54
2022/04/16 08:41:39;;;;;;;6.12;5.53;;;;;;;13.97;60.24;99278.32;1736121;81;22029;-53
2022/04/16 08:44:05;;;;;;;5.97;5.58;;;;;;;14.04;59.21;99276.91;1742518;81;20961;-55
2022/04/16 08:46:32;;;;;;;6.33;5.83;;;;;;;14.09;58.89;99282.89;1744208;80;21033;-55
2022/04/16 08:48:59;;;;;;;5.40;4.90;;;;;;;14.13;58.69;99280.33;1744546;81;21041;-53
2022/04/16 08:51:27;;;;;;;5.58;5.08;;;;;;;14.16;57.74;99286.89;1744811;81;21050;-54
2022/04/16 08:53:54;;;;;;;5.53;5.12;;;;;;;14.15;57.11;99286.52;1742227;80;22009;-54
2022/04/16 08:56:20;;;;;;;4.90;4.20;;;;;;;14.07;56.73;99283.48;1744220;81;21573;-56
2022/04/16 08:58:48;;;;;;;4.28;3.87;;;;;;;14.00;57.02;99291.16;1743033;80;21660;-55
2022/04/16 09:01:16;;;;;;;4.80;4.40;;;;;;;13.97;56.71;99289.14;1742292;80;21546;-55
2022/04/16 09:03:43;;;;;;;3.72;3.40;;;;;;;13.88;56.35;99288.42;1742599;81;21022;-55
2022/04/16 09:06:09;;;;;;;3.22;2.87;;;;;;;13.80;56.60;99281.33;1743452;81;21657;-56
2022/04/16 09:08:36;;;;;;;3.47;3.02;;;;;;;13.76;56.79;99282.04;1744168;80;21045;-55
2022/04/16 09:11:10;;;;;;;3.95;3.65;;;;;;;13.78;56.56;99276.53;1744528;80;21073;-56
2022/04/16 09:13:51;;;;;;;3.02;2.83;;;;;;;13.77;56.41;99274.80;1742172;80;20997;-54
2022/04/16 09:16:19;;;;;;;6.08;3.20;;;;;;;13.76;56.14;99279.82;1745987;80;21639;-56
2022/04/16 09:18:53;;;;;;;3.65;3.40;;;;;;;13.76;55.54;99285.23;1743334;80;21105;-55
2022/04/16 09:21:25;;;;;;;2.95;2.75;;;;;;;13.65;55.23;99284.60;1743971;81;21052;-55
2022/04/16 09:24:00;;;;;;;3.50;3.25;;;;;;;13.58;55.68;99288.22;1746191;81;20930;-55
2022/04/16 09:26:36;;;;;;;2.80;2.60;;;;;;;13.57;56.04;99285.13;1743811;81;21069;-55
2022/04/16 09:29:14;;;;;;;3.05;2.85;;;;;;;13.63;56.34;99285.19;1746776;80;21869;-53
2022/04/16 09:31:43;;;;;;;3.05;2.77;;;;;;;13.71;56.39;99293.64;1745707;80;22169;-52
2022/04/16 09:34:20;;;;;;;3.50;3.30;;;;;;;13.79;55.97;99293.98;1742608;80;21626;-53
2022/04/16 09:36:47;;;;;;;3.40;3.20;;;;;;;13.83;55.60;99294.66;1746987;81;21554;-54
2022/04/16 09:39:13;;;;;;;3.87;3.58;;;;;;;13.84;55.93;99301.31;1745080;80;22599;-53
2022/04/16 09:41:45;;;;;;;4.45;4.05;;;;;;;13.85;56.05;99302.19;1744856;80;21058;-54
2022/04/16 09:44:21;;;;;;;4.78;4.22;;;;;;;13.84;56.58;99320.73;1749668;80;21355;-54
2022/04/16 09:46:48;;;;;;;3.60;3.33;;;;;;;13.82;58.27;99328.95;1752605;80;20949;-53
2022/04/16 09:49:17;;;;;;;2.60;2.40;;;;;;;13.76;59.26;99335.27;1752293;80;20983;-53
2022/04/16 09:51:47;;;;;;;2.85;1.90;;;;;;;13.59;60.74;99348.09;1752016;80;21392;-55
2022/04/16 09:54:13;;;;;;;3.05;1.85;;;;;;;13.36;61.59;99362.25;1751144;81;21437;-54
2022/04/16 09:56:41;;;;;;;2.15;1.50;;;;;;;13.06;62.61;99362.88;1751667;80;21088;-53
2022/04/16 09:59:09;;;;;;;1.65;1.52;;;;;;;12.73;62.96;99364.55;1751069;80;20922;-52
2022/04/16 10:01:46;;;;;;;2.10;1.30;;;;;;;12.50;63.32;99382.19;1750113;81;20958;-53
2022/04/16 10:04:08;;;;;;;2.25;1.72;;;;;;;12.33;63.55;99382.36;1749979;81;20971;-54
2022/04/16 10:06:36;;;;;;;2.98;1.67;;;;;;;12.15;64.04;99384.34;1750691;81;20983;-54
2022/04/16 10:09:13;;;;;;;5.42;1.72;;;;;;;11.87;64.49;99386.95;1748027;80;21069;-51
2022/04/16 10:14:26;;;;;;;2.00;1.42;;;;;;;11.24;65.98;99409.39;1749474;80;21064;-54
2022/04/16 10:17:17;;;;;;;1.30;1.00;;;;;;;11.05;66.56;99411.41;1748863;81;21067;-53
2022/04/16 10:19:48;;;;;;;1.40;0.95;;;;;;;10.96;67.00;99417.30;1749483;80;21029;-54
2022/04/16 10:22:23;;;;;;;1.40;0.80;;;;;;;10.88;67.29;99420.89;1749977;81;21613;-53
2022/04/16 10:24:57;;;;;;;1.50;0.80;;;;;;;10.80;67.49;99428.52;1748614;81;21104;-54
2022/04/16 10:27:27;;;;;;;4.28;0.80;;;;;;;10.67;68.08;99428.77;1752714;81;20878;-53
2022/04/16 10:30:00;;;;;;;0.90;0.70;;;;;;;10.48;68.83;99445.89;1752088;81;21054;-52
2022/04/16 10:32:39;;;;;;;1.22;0.57;;;;;;;10.28;69.38;99443.39;1748899;80;21092;-54
2022/04/16 10:35:16;;;;;;;0.65;0.45;;;;;;;10.09;69.92;99442.08;1743651;80;20942;-53
2022/04/16 10:37:44;;;;;;;0.33;0.23;;;;;;;9.90;70.25;99452.48;1752035;80;20993;-52
2022/04/16 10:40:20;;;;;;;0.40;0.30;;;;;;;9.73;70.65;99460.92;1750066;81;21056;-53
2022/04/16 10:42:50;;;;;;;0.53;0.30;;;;;;;9.66;70.95;99464.86;1748355;81;21098;-53
2022/04/16 10:45:17;;;;;;;0.40;0.20;;;;;;;9.61;71.14;99462.86;1739103;80;21518;-53
2022/04/16 10:47:45;;;;;;;0.45;0.20;;;;;;;9.59;70.90;99480.02;1737206;80;21665;-55
2022/04/16 10:50:15;;;;;;;0.33;0.10;;;;;;;9.50;70.85;99486.70;1735906;81;21091;-53
2022/04/16 10:53:03;;;;;;;0.20;0.10;;;;;;;9.38;71.10;99477.88;1737244;80;20876;-52
2022/04/16 10:55:36;;;;;;;0.45;0.13;;;;;;;9.27;71.37;99491.80;1735871;80;21094;-52
2022/04/16 10:58:03;;;;;;;0.35;0.28;;;;;;;9.17;71.50;99496.36;1735549;81;21082;-54
2022/04/16 11:00:44;;;;;;;0.23;0.20;;;;;;;9.13;71.90;99496.96;1735766;81;21157;-53
2022/04/16 11:03:17;;;;;;;1.40;0.10;;;;;;;9.08;71.96;99499.00;1736694;80;20891;-55
2022/04/16 11:05:42;;;;;;;0.15;0.10;;;;;;;9.04;72.72;99524.23;1736191;80;21515;-56
2022/04/16 11:08:13;;;;;;;0.40;0.30;;;;;;;8.93;72.75;99501.05;1735986;81;21576;-54
2022/04/16 11:10:41;;;;;;;0.50;0.20;;;;;;;8.83;72.83;99496.56;1736639;80;21089;-56
2022/04/16 11:13:10;;;;;;;1.70;0.20;;;;;;;8.67;73.40;99515.17;1735205;81;21054;-54
2022/04/16 11:15:40;;;;;;;0.43;0.20;;;;;;;8.54;73.94;99513.08;1716114;80;20919;-53
2022/04/16 11:18:07;;;;;;;0.30;0.10;;;;;;;8.47;73.84;99515.63;1738029;81;20978;-54
2022/04/16 11:20:33;;;;;;;1.60;0.20;;;;;;;8.44;73.87;99506.36;1735208;80;20970;-53
2022/04/16 11:23:01;;;;;;;0.50;0.20;;;;;;;8.41;73.74;99515.44;1739351;80;21053;-54
2022/04/16 11:34:14;;;;;;;2.30;0.40;;;;;;;8.36;73.63;99525.47;1735062;81;21535;-53
2022/04/16 11:36:13;;;;;;;;;;;;;;;8.22;73.89;99517.98;1738139;81;21063;-52
2022/04/16 11:38:42;;;;;;;0.97;0.30;;;;;;;8.24;73.83;99515.25;1735887;80;21127;-52
2022/04/16 11:41:11;;;;;;;0.80;0.30;;;;;;;8.22;73.71;99526.03;1734908;80;21610;-52
2022/04/16 11:43:51;;;;;;;0.70;0.20;;;;;;;8.21;73.77;99527.44;1736464;81;21069;-53
2022/04/16 11:46:22;;;;;;;0.30;0.20;;;;;;;8.18;73.76;99524.87;1736720;80;21132;-53
2022/04/16 11:48:49;;;;;;;0.63;0.20;;;;;;;8.18;73.78;99531.57;1738422;80;21404;-53
2022/04/16 11:51:18;;;;;;;0.33;0.10;;;;;;;8.20;74.25;99540.43;1736787;81;20954;-54
2022/04/16 11:53:51;;;;;;;0.33;0.20;;;;;;;8.21;74.50;99540.38;1737075;81;20914;-53
2022/04/16 11:56:22;;;;;;;0.60;0.20;;;;;;;8.16;74.84;99549.56;1737162;80;20882;-53
2022/04/16 11:58:50;;;;;;;0.60;0.20;;;;;;;8.05;75.07;99541.08;1735257;81;21547;-52
2022/04/16 12:01:23;;;;;;;0.40;0.20;;;;;;;7.99;75.52;99545.73;1737644;81;21049;-52
2022/04/16 12:03:56;;;;;;;0.50;0.20;;;;;;;7.96;76.10;99553.92;1737773;81;21674;-53
2022/04/16 12:06:20;;;;;;;0.70;0.23;;;;;;;7.87;76.55;99552.08;1739071;80;20871;-53